createdAt,value
2023-03-02T13:16:39.360Z,64
2023-03-02T13:17:43.149Z,60
2023-03-02T13:18:45.671Z,58
2023-03-02T13:20:52.189Z,60
2023-03-02T13:22:58.675Z,62
2023-03-02T13:24:02.121Z,64
2023-03-02T13:26:09.273Z,65
2023-03-02T13:28:16.759Z,64
2023-03-02T13:29:19.804Z,65
2023-03-02T13:31:26.877Z,62
2023-03-02T13:33:35.423Z,58
2023-03-02T13:35:42.123Z,55
2023-03-02T13:36:45.125Z,55
2023-03-02T13:38:52.958Z,51
2023-03-02T13:40:58.826Z,54
2023-03-02T13:43:05.927Z,60
2023-03-02T13:44:09.034Z,63
2023-03-02T13:46:16.333Z,55
2023-03-02T13:48:23.218Z,60
2023-03-02T13:49:27.250Z,63
2023-03-02T13:50:31.593Z,60
2023-03-02T13:51:34.504Z,54
2023-03-02T13:53:40.928Z,56
2023-03-02T13:54:44.014Z,57
2023-03-02T13:56:50.624Z,50
2023-03-02T13:58:57.144Z,49
2023-03-02T14:01:03.375Z,55
2023-03-02T14:02:06.389Z,55
2023-03-02T14:04:13.889Z,51
2023-03-02T14:06:22.556Z,53
2023-03-02T14:08:28.680Z,48
2023-03-02T14:09:32.402Z,46
2023-03-02T14:11:39.828Z,47
2023-03-02T14:13:46.780Z,47
2023-03-02T14:14:50.506Z,46
2023-03-02T14:16:57.491Z,45
2023-03-02T14:19:04.616Z,42
2023-03-02T14:21:13.003Z,44
2023-03-02T14:22:16.481Z,42
2023-03-02T14:24:23.917Z,43
2023-03-02T14:26:30.627Z,43
2023-03-02T14:28:37.721Z,41
2023-03-02T14:29:41.383Z,41
2023-03-02T14:30:45.669Z,39
2023-03-02T14:31:48.858Z,37
2023-03-02T14:33:56.129Z,34
2023-03-02T14:34:59.506Z,34
2023-03-02T14:36:03.543Z,34
2023-03-02T14:37:07.425Z,38
2023-03-02T14:39:14.235Z,36
2023-03-02T14:40:17.670Z,34
2023-03-02T14:41:21.513Z,34
2023-03-02T14:42:25.264Z,34
2023-03-02T14:44:33.046Z,34
2023-03-02T14:46:40.122Z,36
2023-03-02T14:47:43.413Z,37
2023-03-02T14:49:49.582Z,33
2023-03-02T14:51:56.542Z,33
2023-03-02T14:54:03.811Z,31
2023-03-02T14:55:07.695Z,32
2023-03-02T14:57:14.226Z,33
2023-03-02T14:59:20.169Z,31
2023-03-02T15:00:23.582Z,32
2023-03-02T15:01:27.532Z,33
2023-03-02T15:02:31.023Z,32
2023-03-02T15:04:37.934Z,29
2023-03-02T15:06:03.355Z,28
2023-03-02T15:07:07.213Z,27
2023-03-02T15:08:10.981Z,26
2023-03-02T15:10:17.614Z,25
2023-03-02T15:12:23.499Z,26
2023-03-02T15:14:29.895Z,28
2023-03-02T15:15:32.928Z,28
2023-03-02T15:17:39.692Z,25
2023-03-02T15:19:45.298Z,25
2023-03-02T15:21:51.385Z,24
2023-03-02T15:22:55.525Z,24
2023-03-02T15:25:02.408Z,24
2023-03-02T15:27:08.945Z,23
2023-03-02T15:29:15.412Z,22
2023-03-02T15:30:18.814Z,24
2023-03-02T15:32:25.993Z,20
2023-03-02T15:34:33.443Z,18
2023-03-02T15:36:39.847Z,16
2023-03-02T15:37:42.955Z,16
2023-03-02T15:38:46.117Z,16
2023-03-02T15:39:49.852Z,16
2023-03-02T15:41:56.529Z,15
2023-03-02T15:43:00.272Z,14
2023-03-02T15:44:03.321Z,14
2023-03-02T15:45:06.336Z,13
2023-03-02T15:47:12.469Z,12
2023-03-02T15:48:16.239Z,12
2023-03-02T15:49:19.976Z,12
2023-03-02T15:50:23.019Z,12
2023-03-02T15:52:28.945Z,12
2023-03-02T15:54:35.802Z,11
2023-03-02T15:55:39.835Z,12
2023-03-02T15:56:46.595Z,12
2023-03-02T15:57:49.585Z,12
2023-03-02T15:59:55.707Z,11
2023-03-02T16:02:02.865Z,12
2023-03-02T16:03:06.527Z,12
2023-03-02T16:05:12.807Z,11
2023-03-02T16:07:18.633Z,10
2023-03-02T16:09:25.489Z,9
2023-03-02T16:10:29.305Z,9
2023-03-02T16:12:36.439Z,8
2023-03-02T16:14:42.232Z,7
2023-03-02T16:16:49.345Z,7
2023-03-02T16:17:52.634Z,6
2023-03-02T16:19:59.108Z,6
2023-03-02T16:22:05.066Z,6
2023-03-02T16:24:10.619Z,5
2023-03-02T16:25:14.231Z,5
2023-03-02T16:27:22.355Z,4
2023-03-02T16:29:28.823Z,4
2023-03-02T16:30:32.150Z,4
2023-03-02T16:31:35.604Z,4
2023-03-02T16:32:38.729Z,3
2023-03-02T16:34:44.905Z,3
2023-03-02T16:36:54.630Z,2
2023-03-02T16:37:58.312Z,2
2023-03-02T16:40:05.553Z,2
2023-03-02T16:42:12.308Z,2
2023-03-02T16:44:20.072Z,2
2023-03-02T16:45:23.498Z,1
2023-03-02T16:47:30.051Z,1
2023-03-02T16:49:35.935Z,1
2023-03-02T16:51:42.311Z,1
2023-03-02T16:52:45.664Z,1
2023-03-02T16:54:52.359Z,0
2023-03-02T16:56:58.950Z,0
2023-03-02T16:59:05.978Z,0
2023-03-02T17:00:09.659Z,0
2023-03-02T17:02:16.663Z,0
2023-03-02T17:04:24.126Z,0
2023-03-02T17:06:30.602Z,0
2023-03-02T17:07:34.265Z,0
2023-03-02T17:09:40.473Z,0
2023-03-02T17:11:47.229Z,0
2023-03-02T17:13:56.415Z,0
2023-03-02T17:15:01.144Z,0
2023-03-02T17:17:09.856Z,0
2023-03-02T17:19:17.860Z,0
2023-03-02T17:21:24.790Z,0
2023-03-02T17:22:28.797Z,0
2023-03-02T17:24:34.292Z,0
2023-03-02T17:26:40.723Z,0
2023-03-02T17:28:46.525Z,0
2023-03-02T17:29:50.078Z,0
2023-03-02T17:31:57.382Z,0
2023-03-02T17:34:03.850Z,0
2023-03-02T17:36:10.203Z,0
2023-03-02T17:37:13.847Z,0
2023-03-02T17:38:17.600Z,0
2023-03-02T17:39:20.669Z,0
2023-03-02T17:41:27.899Z,0
2023-03-02T17:42:30.916Z,0
2023-03-02T17:43:35.090Z,0
2023-03-02T17:44:38.477Z,0
2023-03-02T17:46:46.221Z,0
2023-03-02T17:47:49.508Z,0
2023-03-02T17:48:55.892Z,0
2023-03-02T17:49:58.618Z,0
2023-03-02T17:52:04.127Z,0
2023-03-02T17:53:07.482Z,0
2023-03-02T17:54:10.851Z,0
2023-03-02T17:55:14.519Z,0
2023-03-02T17:57:21.715Z,0
2023-03-02T17:58:46.129Z,0
2023-03-02T17:59:49.686Z,0
2023-03-02T18:01:59.536Z,0
2023-03-02T18:03:03.690Z,0
2023-03-02T18:05:10.307Z,0
2023-03-02T18:07:16.554Z,0
2023-03-02T18:09:23.350Z,0
2023-03-02T18:10:26.508Z,0
2023-03-02T18:12:33.231Z,0
2023-03-02T18:14:39.729Z,0
2023-03-02T18:16:47.553Z,0
2023-03-02T18:17:51.021Z,0
2023-03-02T18:18:56.419Z,0
2023-03-02T18:20:00.446Z,0
2023-03-02T18:22:06.038Z,0
2023-03-02T18:23:09.438Z,0
2023-03-02T18:24:12.741Z,0
2023-03-02T18:25:16.507Z,0
2023-03-02T18:27:23.445Z,0
2023-03-02T18:28:26.182Z,0
2023-03-02T18:29:29.863Z,0
2023-03-02T18:30:32.624Z,0
2023-03-02T18:32:40.687Z,0
2023-03-02T18:34:47.323Z,0
2023-03-02T18:35:50.749Z,0
2023-03-02T18:37:57.215Z,0
2023-03-02T18:40:03.817Z,0
2023-03-02T18:42:13.921Z,0
2023-03-02T18:43:16.617Z,0
2023-03-02T18:45:23.439Z,0
2023-03-02T18:47:29.689Z,0
2023-03-02T18:49:36.915Z,0
2023-03-02T18:50:40.683Z,0
2023-03-02T18:52:47.524Z,0
2023-03-02T18:54:54.362Z,0
2023-03-02T18:57:00.872Z,0
2023-03-02T18:58:04.221Z,0
2023-03-02T19:00:10.514Z,0
2023-03-02T19:02:18.518Z,0
2023-03-02T19:04:25.805Z,0
2023-03-02T19:05:29.532Z,0
2023-03-02T19:07:35.986Z,0
2023-03-02T19:09:41.826Z,0
2023-03-02T19:11:48.405Z,0
2023-03-02T19:12:52.226Z,0
2023-03-02T19:14:58.341Z,0
2023-03-02T19:17:04.504Z,0
2023-03-02T19:19:11.939Z,0
2023-03-02T19:20:15.500Z,0
2023-03-02T19:22:22.677Z,0
2023-03-02T19:24:29.557Z,0
2023-03-02T19:26:35.363Z,0
2023-03-02T19:27:38.985Z,0
2023-03-02T19:29:45.645Z,0
2023-03-02T19:31:51.221Z,0
2023-03-02T19:33:57.377Z,0
2023-03-02T19:35:01.111Z,0
2023-03-02T19:37:08.529Z,0
2023-03-02T19:39:14.929Z,0
2023-03-02T19:40:18.594Z,0
2023-03-02T19:42:25.063Z,0
2023-03-02T19:44:31.520Z,0
2023-03-02T19:46:38.666Z,0
2023-03-02T19:47:41.387Z,0
2023-03-02T19:49:48.200Z,0
2023-03-02T19:51:54.782Z,0
2023-03-02T19:54:04.947Z,0
2023-03-02T19:55:08.940Z,0
2023-03-02T19:57:15.806Z,0
2023-03-02T19:59:23.352Z,0
2023-03-02T20:01:30.676Z,0
2023-03-02T20:02:34.483Z,0
2023-03-02T20:04:40.941Z,0
2023-03-02T20:06:47.973Z,0
2023-03-02T20:08:55.670Z,0
2023-03-02T20:09:58.835Z,0
2023-03-02T20:12:05.266Z,0
2023-03-02T20:14:33.928Z,0
2023-03-02T20:16:41.416Z,0
2023-03-02T20:18:47.449Z,0
2023-03-02T20:19:50.828Z,0
2023-03-02T20:21:56.677Z,0
2023-03-02T20:24:04.370Z,0
2023-03-02T20:26:10.773Z,0
2023-03-02T20:27:14.036Z,0
2023-03-02T20:28:16.754Z,0
2023-03-02T20:29:20.215Z,0
2023-03-02T20:31:26.392Z,0
2023-03-02T20:32:30.391Z,0
2023-03-02T20:33:33.624Z,0
2023-03-02T20:34:37.622Z,0
2023-03-02T20:36:44.279Z,0
2023-03-02T20:37:47.470Z,0
2023-03-02T20:38:51.414Z,0
2023-03-02T20:39:54.918Z,0
2023-03-02T20:42:01.154Z,0
2023-03-02T20:43:04.572Z,0
2023-03-02T20:44:07.869Z,0
2023-03-02T20:45:11.370Z,0
2023-03-02T20:47:18.597Z,0
2023-03-02T20:49:25.620Z,0
2023-03-02T20:50:28.342Z,0
2023-03-02T20:52:35.070Z,0
2023-03-02T20:54:41.238Z,0
2023-03-02T20:56:48.977Z,0
2023-03-02T20:57:52.051Z,0
2023-03-02T20:59:58.877Z,0
2023-03-02T21:02:05.191Z,0
2023-03-02T21:04:10.995Z,0
2023-03-02T21:05:14.717Z,0
2023-03-02T21:07:21.152Z,0
2023-03-02T21:09:28.927Z,0
2023-03-02T21:11:38.791Z,0
2023-03-02T21:12:42.901Z,0
2023-03-02T21:14:50.267Z,0
2023-03-02T21:16:57.023Z,0
2023-03-02T21:19:03.851Z,0
2023-03-02T21:20:07.833Z,0
2023-03-02T21:22:14.579Z,0
2023-03-02T21:24:21.420Z,0
2023-03-02T21:26:27.967Z,0
2023-03-02T21:27:32.012Z,0
2023-03-02T21:29:38.701Z,0
2023-03-02T21:31:45.899Z,0
2023-03-02T21:33:52.539Z,0
2023-03-02T21:34:56.518Z,0
2023-03-02T21:37:03.646Z,0
2023-03-02T21:39:09.986Z,0
2023-03-02T21:40:13.753Z,0
2023-03-02T21:41:17.369Z,0
2023-03-02T21:42:21.472Z,0
2023-03-02T21:44:29.049Z,0
2023-03-02T21:45:32.437Z,0
2023-03-02T21:46:36.353Z,0
2023-03-02T21:47:40.393Z,0
2023-03-02T21:49:46.106Z,0
2023-03-02T21:50:49.356Z,0
2023-03-02T21:51:52.418Z,0
2023-03-02T21:52:55.495Z,0
2023-03-02T21:55:01.754Z,0
2023-03-02T21:56:04.649Z,0
2023-03-02T21:57:08.037Z,0
2023-03-02T21:58:11.929Z,0
2023-03-02T22:00:19.367Z,0
2023-03-02T22:01:22.791Z,0
2023-03-02T22:02:25.791Z,0
2023-03-02T22:03:29.468Z,0
2023-03-02T22:05:39.276Z,0
2023-03-02T22:07:45.393Z,0
2023-03-02T22:08:48.711Z,0
2023-03-02T22:10:54.849Z,0
2023-03-02T22:13:01.637Z,0
2023-03-02T22:14:05.450Z,0
2023-03-02T22:15:08.918Z,0
2023-03-02T22:16:12.723Z,0
2023-03-02T22:18:18.831Z,0
2023-03-02T22:19:21.619Z,0
2023-03-02T22:20:24.972Z,0
2023-03-02T22:21:28.359Z,0
2023-03-02T22:23:34.965Z,0
2023-03-02T22:24:37.982Z,0
2023-03-02T22:26:43.206Z,0
2023-03-02T22:28:49.613Z,0
2023-03-02T22:29:53.123Z,0
2023-03-02T22:30:56.851Z,0
2023-03-02T22:32:00.788Z,0
2023-03-02T22:34:06.535Z,0
2023-03-02T22:36:12.415Z,0
2023-03-02T22:37:16.004Z,0
2023-03-02T22:39:22.095Z,0
2023-03-02T22:40:25.209Z,0
2023-03-02T22:41:28.471Z,0
2023-03-02T22:42:31.328Z,0
2023-03-02T22:44:38.258Z,0
2023-03-02T22:45:42.451Z,0
2023-03-02T22:47:49.306Z,0
2023-03-02T22:49:54.848Z,0
2023-03-02T22:52:01.507Z,0
2023-03-02T22:53:04.775Z,0
2023-03-02T22:55:11.540Z,0
2023-03-02T22:57:19.064Z,0
2023-03-02T22:58:22.082Z,0
2023-03-02T22:59:25.482Z,0
2023-03-02T23:00:28.575Z,0
2023-03-02T23:02:35.924Z,0
2023-03-02T23:03:38.654Z,0
2023-03-02T23:05:45.489Z,0
2023-03-02T23:07:51.750Z,0
2023-03-02T23:08:54.081Z,0
2023-03-02T23:10:59.850Z,0
2023-03-02T23:13:06.147Z,0
2023-03-02T23:14:09.214Z,0
2023-03-02T23:16:15.723Z,0
2023-03-02T23:18:23.621Z,0
2023-03-02T23:20:30.696Z,0
2023-03-02T23:21:34.439Z,0
2023-03-02T23:23:40.243Z,0
2023-03-02T23:25:47.674Z,0
2023-03-02T23:27:53.880Z,0
2023-03-02T23:28:56.902Z,0
2023-03-02T23:31:03.285Z,0
2023-03-02T23:33:10.727Z,0
2023-03-02T23:35:34.061Z,0
2023-03-02T23:37:41.165Z,0
2023-03-02T23:38:44.648Z,0
2023-03-02T23:40:51.465Z,0
2023-03-02T23:42:10.456Z,0
2023-03-02T23:43:14.321Z,0
2023-03-02T23:45:22.122Z,0
2023-03-02T23:47:29.054Z,0
2023-03-02T23:48:33.087Z,0
2023-03-02T23:50:40.506Z,0
2023-03-02T23:52:47.706Z,0
2023-03-02T23:54:54.167Z,0
2023-03-02T23:55:57.278Z,0
2023-03-02T23:56:59.887Z,0
2023-03-02T23:58:02.711Z,0
